sensor_id;sensor_type;location;lat;lon;timestamp;temperature;humidity
7214;DHT22;3648;50.614;13.830;2022-12-11T00:01:36;-0.20;1.00
7214;DHT22;3648;50.614;13.830;2022-12-11T00:04:03;-0.10;1.00
7214;DHT22;3648;50.614;13.830;2022-12-11T00:06:30;-0.10;1.00
7214;DHT22;3648;50.614;13.830;2022-12-11T00:08:57;-0.10;1.00
7214;DHT22;3648;50.614;13.830;2022-12-11T00:11:25;-0.10;1.00
7214;DHT22;3648;50.614;13.830;2022-12-11T00:13:52;-0.10;1.00
7214;DHT22;3648;50.614;13.830;2022-12-11T00:16:19;0.00;1.00
7214;DHT22;3648;50.614;13.830;2022-12-11T00:18:46;0.00;1.00
7214;DHT22;3648;50.614;13.830;2022-12-11T00:21:13;0.00;1.00
7214;DHT22;3648;50.614;13.830;2022-12-11T00:23:41;0.00;1.00
7214;DHT22;3648;50.614;13.830;2022-12-11T00:26:11;0.00;1.00
7214;DHT22;3648;50.614;13.830;2022-12-11T00:28:40;0.00;1.00
7214;DHT22;3648;50.614;13.830;2022-12-11T00:31:09;0.00;1.00
7214;DHT22;3648;50.614;13.830;2022-12-11T00:33:37;-0.10;1.00
7214;DHT22;3648;50.614;13.830;2022-12-11T00:36:12;-0.10;1.00
7214;DHT22;3648;50.614;13.830;2022-12-11T00:38:39;-0.10;1.00
7214;DHT22;3648;50.614;13.830;2022-12-11T00:41:07;-0.10;1.00
7214;DHT22;3648;50.614;13.830;2022-12-11T00:43:34;-0.10;1.00
7214;DHT22;3648;50.614;13.830;2022-12-11T00:46:03;-0.10;1.00
7214;DHT22;3648;50.614;13.830;2022-12-11T00:48:30;-0.10;1.00
7214;DHT22;3648;50.614;13.830;2022-12-11T00:50:58;-0.20;1.00
7214;DHT22;3648;50.614;13.830;2022-12-11T00:53:25;-0.20;1.00
7214;DHT22;3648;50.614;13.830;2022-12-11T00:55:52;-0.20;1.00
7214;DHT22;3648;50.614;13.830;2022-12-11T00:58:19;-0.20;1.00
7214;DHT22;3648;50.614;13.830;2022-12-11T01:00:46;-0.20;1.00
7214;DHT22;3648;50.614;13.830;2022-12-11T01:03:16;-0.20;1.00
7214;DHT22;3648;50.614;13.830;2022-12-11T01:05:50;-0.30;1.00
7214;DHT22;3648;50.614;13.830;2022-12-11T01:08:18;-0.20;1.00
7214;DHT22;3648;50.614;13.830;2022-12-11T01:10:45;-0.30;1.00
7214;DHT22;3648;50.614;13.830;2022-12-11T01:13:11;-0.30;1.00
7214;DHT22;3648;50.614;13.830;2022-12-11T01:15:40;-0.30;1.00
7214;DHT22;3648;50.614;13.830;2022-12-11T01:18:07;-0.30;1.00
7214;DHT22;3648;50.614;13.830;2022-12-11T01:20:37;-0.30;1.00
7214;DHT22;3648;50.614;13.830;2022-12-11T01:23:05;-0.30;1.00
7214;DHT22;3648;50.614;13.830;2022-12-11T01:25:34;-0.40;1.00
7214;DHT22;3648;50.614;13.830;2022-12-11T01:28:03;-0.40;1.00
7214;DHT22;3648;50.614;13.830;2022-12-11T01:30:30;-0.50;1.00
7214;DHT22;3648;50.614;13.830;2022-12-11T01:32:58;-0.60;1.00
7214;DHT22;3648;50.614;13.830;2022-12-11T01:35:25;-0.60;1.00
7214;DHT22;3648;50.614;13.830;2022-12-11T01:37:54;-0.50;1.00
7214;DHT22;3648;50.614;13.830;2022-12-11T01:40:21;-0.60;1.00
7214;DHT22;3648;50.614;13.830;2022-12-11T01:42:48;-0.60;1.00
7214;DHT22;3648;50.614;13.830;2022-12-11T01:45:31;-0.60;1.00
7214;DHT22;3648;50.614;13.830;2022-12-11T01:48:05;-0.60;1.00
7214;DHT22;3648;50.614;13.830;2022-12-11T01:50:37;-0.60;1.00
7214;DHT22;3648;50.614;13.830;2022-12-11T01:53:09;-0.70;1.00
7214;DHT22;3648;50.614;13.830;2022-12-11T01:55:39;-0.70;1.00
7214;DHT22;3648;50.614;13.830;2022-12-11T01:58:07;-0.70;1.00
7214;DHT22;3648;50.614;13.830;2022-12-11T02:00:36;-0.70;1.00
7214;DHT22;3648;50.614;13.830;2022-12-11T02:03:03;-0.70;1.00
7214;DHT22;3648;50.614;13.830;2022-12-11T02:05:30;-0.80;1.00
7214;DHT22;3648;50.614;13.830;2022-12-11T02:08:00;-0.80;1.00
7214;DHT22;3648;50.614;13.830;2022-12-11T02:10:42;-0.80;1.00
7214;DHT22;3648;50.614;13.830;2022-12-11T02:13:17;-0.90;1.00
7214;DHT22;3648;50.614;13.830;2022-12-11T02:15:49;-0.90;1.00
7214;DHT22;3648;50.614;13.830;2022-12-11T02:18:22;-0.90;1.00
7214;DHT22;3648;50.614;13.830;2022-12-11T02:20:59;-0.80;1.00
7214;DHT22;3648;50.614;13.830;2022-12-11T02:23:52;-0.80;1.00
7214;DHT22;3648;50.614;13.830;2022-12-11T02:26:44;-0.80;1.00
7214;DHT22;3648;50.614;13.830;2022-12-11T02:29:17;-0.80;1.00
7214;DHT22;3648;50.614;13.830;2022-12-11T02:31:50;-0.80;1.00
7214;DHT22;3648;50.614;13.830;2022-12-11T02:34:23;-0.80;1.00
7214;DHT22;3648;50.614;13.830;2022-12-11T02:36:54;-0.80;1.00
7214;DHT22;3648;50.614;13.830;2022-12-11T02:39:24;-0.70;1.00
7214;DHT22;3648;50.614;13.830;2022-12-11T02:41:52;-0.80;1.00
7214;DHT22;3648;50.614;13.830;2022-12-11T02:44:25;-0.80;1.00
7214;DHT22;3648;50.614;13.830;2022-12-11T02:46:54;-0.80;1.00
7214;DHT22;3648;50.614;13.830;2022-12-11T02:49:22;-0.80;1.00
7214;DHT22;3648;50.614;13.830;2022-12-11T02:51:50;-0.70;1.00
7214;DHT22;3648;50.614;13.830;2022-12-11T02:54:24;-0.80;1.00
7214;DHT22;3648;50.614;13.830;2022-12-11T02:56:56;-0.70;1.00
7214;DHT22;3648;50.614;13.830;2022-12-11T02:59:30;-0.70;1.00
7214;DHT22;3648;50.614;13.830;2022-12-11T03:01:59;-0.70;1.00
7214;DHT22;3648;50.614;13.830;2022-12-11T03:04:27;-0.70;1.00
7214;DHT22;3648;50.614;13.830;2022-12-11T03:06:58;-0.80;1.00
7214;DHT22;3648;50.614;13.830;2022-12-11T03:09:36;-0.70;1.00
7214;DHT22;3648;50.614;13.830;2022-12-11T03:12:04;-0.70;1.00
7214;DHT22;3648;50.614;13.830;2022-12-11T03:14:33;-0.70;1.00
7214;DHT22;3648;50.614;13.830;2022-12-11T03:17:07;-0.70;1.00
7214;DHT22;3648;50.614;13.830;2022-12-11T03:19:37;-0.60;1.00
7214;DHT22;3648;50.614;13.830;2022-12-11T03:22:09;-0.60;1.00
7214;DHT22;3648;50.614;13.830;2022-12-11T03:24:40;-0.60;1.00
7214;DHT22;3648;50.614;13.830;2022-12-11T03:27:15;-0.60;1.00
7214;DHT22;3648;50.614;13.830;2022-12-11T03:29:50;-0.60;1.00
7214;DHT22;3648;50.614;13.830;2022-12-11T03:32:21;-0.70;1.00
7214;DHT22;3648;50.614;13.830;2022-12-11T03:34:54;-0.70;1.00
7214;DHT22;3648;50.614;13.830;2022-12-11T03:37:24;-0.70;1.00
7214;DHT22;3648;50.614;13.830;2022-12-11T03:39:58;-0.60;1.00
7214;DHT22;3648;50.614;13.830;2022-12-11T03:42:26;-0.60;1.00
7214;DHT22;3648;50.614;13.830;2022-12-11T03:44:56;-0.60;1.00
7214;DHT22;3648;50.614;13.830;2022-12-11T03:47:26;-0.60;1.00
7214;DHT22;3648;50.614;13.830;2022-12-11T03:49:55;-0.70;1.00
7214;DHT22;3648;50.614;13.830;2022-12-11T03:52:24;-0.70;1.00
7214;DHT22;3648;50.614;13.830;2022-12-11T03:54:54;-0.70;1.00
7214;DHT22;3648;50.614;13.830;2022-12-11T03:57:26;-0.80;1.00
7214;DHT22;3648;50.614;13.830;2022-12-11T03:59:56;-0.70;1.00
7214;DHT22;3648;50.614;13.830;2022-12-11T04:02:23;-0.80;1.00
7214;DHT22;3648;50.614;13.830;2022-12-11T04:04:51;-0.70;1.00
7214;DHT22;3648;50.614;13.830;2022-12-11T04:07:18;-0.70;1.00
7214;DHT22;3648;50.614;13.830;2022-12-11T04:09:45;-0.70;1.00
7214;DHT22;3648;50.614;13.830;2022-12-11T04:12:12;-0.70;1.00
7214;DHT22;3648;50.614;13.830;2022-12-11T04:14:39;-0.70;1.00
7214;DHT22;3648;50.614;13.830;2022-12-11T04:17:25;-0.70;1.00
7214;DHT22;3648;50.614;13.830;2022-12-11T04:20:10;-0.70;1.00
7214;DHT22;3648;50.614;13.830;2022-12-11T04:22:54;-0.70;1.00
7214;DHT22;3648;50.614;13.830;2022-12-11T04:25:39;-0.70;1.00
7214;DHT22;3648;50.614;13.830;2022-12-11T04:28:06;-0.70;1.00
7214;DHT22;3648;50.614;13.830;2022-12-11T04:30:33;-0.70;1.00
7214;DHT22;3648;50.614;13.830;2022-12-11T04:33:02;-0.80;1.00
7214;DHT22;3648;50.614;13.830;2022-12-11T04:35:29;-0.80;1.00
7214;DHT22;3648;50.614;13.830;2022-12-11T04:37:56;-0.80;1.00
7214;DHT22;3648;50.614;13.830;2022-12-11T04:40:23;-0.80;1.00
7214;DHT22;3648;50.614;13.830;2022-12-11T04:42:50;-0.80;1.00
7214;DHT22;3648;50.614;13.830;2022-12-11T04:45:18;-0.80;1.00
7214;DHT22;3648;50.614;13.830;2022-12-11T04:47:45;-0.80;1.00
7214;DHT22;3648;50.614;13.830;2022-12-11T04:50:14;-0.80;1.00
7214;DHT22;3648;50.614;13.830;2022-12-11T04:52:41;-0.80;1.00
7214;DHT22;3648;50.614;13.830;2022-12-11T04:55:09;-0.80;1.00
7214;DHT22;3648;50.614;13.830;2022-12-11T04:57:36;-0.70;1.00
7214;DHT22;3648;50.614;13.830;2022-12-11T05:00:07;-0.80;1.00
7214;DHT22;3648;50.614;13.830;2022-12-11T05:02:35;-0.80;1.00
7214;DHT22;3648;50.614;13.830;2022-12-11T05:05:04;-0.80;1.00
7214;DHT22;3648;50.614;13.830;2022-12-11T05:07:33;-0.80;1.00
7214;DHT22;3648;50.614;13.830;2022-12-11T05:10:00;-0.80;1.00
7214;DHT22;3648;50.614;13.830;2022-12-11T05:12:27;-0.80;1.00
7214;DHT22;3648;50.614;13.830;2022-12-11T05:14:54;-0.80;1.00
7214;DHT22;3648;50.614;13.830;2022-12-11T05:17:21;-0.90;1.00
7214;DHT22;3648;50.614;13.830;2022-12-11T05:19:49;-0.90;1.00
7214;DHT22;3648;50.614;13.830;2022-12-11T05:22:17;-0.90;1.00
7214;DHT22;3648;50.614;13.830;2022-12-11T05:24:46;-0.80;1.00
7214;DHT22;3648;50.614;13.830;2022-12-11T05:27:13;-0.80;1.00
7214;DHT22;3648;50.614;13.830;2022-12-11T05:29:40;-0.90;1.00
7214;DHT22;3648;50.614;13.830;2022-12-11T05:32:07;-0.90;1.00
7214;DHT22;3648;50.614;13.830;2022-12-11T05:34:35;-1.00;1.00
7214;DHT22;3648;50.614;13.830;2022-12-11T05:37:02;-1.00;1.00
7214;DHT22;3648;50.614;13.830;2022-12-11T05:39:29;-1.00;1.00
7214;DHT22;3648;50.614;13.830;2022-12-11T05:41:57;-1.10;1.00
7214;DHT22;3648;50.614;13.830;2022-12-11T05:44:24;-1.20;1.00
7214;DHT22;3648;50.614;13.830;2022-12-11T05:46:52;-1.20;1.00
7214;DHT22;3648;50.614;13.830;2022-12-11T05:49:18;-1.20;1.00
7214;DHT22;3648;50.614;13.830;2022-12-11T05:51:46;-1.30;1.00
7214;DHT22;3648;50.614;13.830;2022-12-11T05:54:13;-1.30;1.00
7214;DHT22;3648;50.614;13.830;2022-12-11T05:56:40;-1.30;1.00
7214;DHT22;3648;50.614;13.830;2022-12-11T05:59:09;-1.30;1.00
7214;DHT22;3648;50.614;13.830;2022-12-11T06:01:38;-1.30;1.00
7214;DHT22;3648;50.614;13.830;2022-12-11T06:04:06;-1.40;1.00
7214;DHT22;3648;50.614;13.830;2022-12-11T06:06:33;-1.40;1.00
7214;DHT22;3648;50.614;13.830;2022-12-11T06:09:02;-1.50;1.00
7214;DHT22;3648;50.614;13.830;2022-12-11T06:11:30;-1.60;1.00
7214;DHT22;3648;50.614;13.830;2022-12-11T06:13:59;-1.60;1.00
7214;DHT22;3648;50.614;13.830;2022-12-11T06:16:28;-1.60;1.00
7214;DHT22;3648;50.614;13.830;2022-12-11T06:18:55;-1.70;1.00
7214;DHT22;3648;50.614;13.830;2022-12-11T06:21:23;-1.70;1.00
7214;DHT22;3648;50.614;13.830;2022-12-11T06:23:53;-1.70;1.00
7214;DHT22;3648;50.614;13.830;2022-12-11T06:26:21;-1.80;1.00
7214;DHT22;3648;50.614;13.830;2022-12-11T06:28:49;-1.80;1.00
7214;DHT22;3648;50.614;13.830;2022-12-11T06:31:16;-1.80;1.00
7214;DHT22;3648;50.614;13.830;2022-12-11T06:33:45;-1.80;1.00
7214;DHT22;3648;50.614;13.830;2022-12-11T06:36:15;-1.90;1.00
7214;DHT22;3648;50.614;13.830;2022-12-11T06:38:42;-1.90;1.00
7214;DHT22;3648;50.614;13.830;2022-12-11T06:41:09;-1.90;1.00
7214;DHT22;3648;50.614;13.830;2022-12-11T06:43:38;-1.90;1.00
7214;DHT22;3648;50.614;13.830;2022-12-11T06:46:06;-1.90;1.00
7214;DHT22;3648;50.614;13.830;2022-12-11T06:48:34;-2.00;1.00
7214;DHT22;3648;50.614;13.830;2022-12-11T06:51:06;-2.00;1.00
7214;DHT22;3648;50.614;13.830;2022-12-11T06:53:33;-2.00;1.00
7214;DHT22;3648;50.614;13.830;2022-12-11T06:56:04;-2.00;1.00
7214;DHT22;3648;50.614;13.830;2022-12-11T06:58:33;-2.00;1.00
7214;DHT22;3648;50.614;13.830;2022-12-11T07:01:01;-2.00;1.00
7214;DHT22;3648;50.614;13.830;2022-12-11T07:03:28;-2.00;1.00
7214;DHT22;3648;50.614;13.830;2022-12-11T07:05:59;-2.00;1.00
7214;DHT22;3648;50.614;13.830;2022-12-11T07:08:28;-2.00;1.00
7214;DHT22;3648;50.614;13.830;2022-12-11T07:11:02;-2.10;1.00
7214;DHT22;3648;50.614;13.830;2022-12-11T07:13:29;-2.10;1.00
7214;DHT22;3648;50.614;13.830;2022-12-11T07:15:57;-2.10;1.00
7214;DHT22;3648;50.614;13.830;2022-12-11T07:18:24;-2.10;1.00
7214;DHT22;3648;50.614;13.830;2022-12-11T07:20:51;-2.10;1.00
7214;DHT22;3648;50.614;13.830;2022-12-11T07:23:18;-2.10;1.00
7214;DHT22;3648;50.614;13.830;2022-12-11T07:25:47;-2.00;1.00
7214;DHT22;3648;50.614;13.830;2022-12-11T07:28:14;-2.00;1.00
7214;DHT22;3648;50.614;13.830;2022-12-11T07:30:41;-2.00;1.00
7214;DHT22;3648;50.614;13.830;2022-12-11T07:33:07;-2.00;1.00
7214;DHT22;3648;50.614;13.830;2022-12-11T07:35:35;-2.00;1.00
7214;DHT22;3648;50.614;13.830;2022-12-11T07:38:02;-2.00;1.00
7214;DHT22;3648;50.614;13.830;2022-12-11T07:40:29;-2.00;1.00
7214;DHT22;3648;50.614;13.830;2022-12-11T07:42:58;-2.00;1.00
7214;DHT22;3648;50.614;13.830;2022-12-11T07:45:25;-1.90;1.00
7214;DHT22;3648;50.614;13.830;2022-12-11T07:47:52;-1.90;1.00
7214;DHT22;3648;50.614;13.830;2022-12-11T07:50:19;-1.90;1.00
7214;DHT22;3648;50.614;13.830;2022-12-11T07:52:46;-1.80;1.00
7214;DHT22;3648;50.614;13.830;2022-12-11T07:55:13;-1.80;1.00
7214;DHT22;3648;50.614;13.830;2022-12-11T07:57:40;-1.70;1.00
7214;DHT22;3648;50.614;13.830;2022-12-11T08:00:09;-1.70;1.00
7214;DHT22;3648;50.614;13.830;2022-12-11T08:02:37;-1.70;1.00
7214;DHT22;3648;50.614;13.830;2022-12-11T08:05:04;-1.70;1.00
7214;DHT22;3648;50.614;13.830;2022-12-11T08:07:33;-1.70;1.00
7214;DHT22;3648;50.614;13.830;2022-12-11T08:10:01;-1.70;1.00
7214;DHT22;3648;50.614;13.830;2022-12-11T08:12:28;-1.60;1.00
7214;DHT22;3648;50.614;13.830;2022-12-11T08:14:55;-1.60;1.00
7214;DHT22;3648;50.614;13.830;2022-12-11T08:17:23;-1.50;1.00
7214;DHT22;3648;50.614;13.830;2022-12-11T08:19:50;-1.40;1.00
7214;DHT22;3648;50.614;13.830;2022-12-11T08:22:17;-1.40;1.00
7214;DHT22;3648;50.614;13.830;2022-12-11T08:24:45;-1.30;1.00
7214;DHT22;3648;50.614;13.830;2022-12-11T08:27:12;-1.20;1.00
7214;DHT22;3648;50.614;13.830;2022-12-11T08:29:39;-1.20;1.00
7214;DHT22;3648;50.614;13.830;2022-12-11T08:32:06;-1.10;1.00
7214;DHT22;3648;50.614;13.830;2022-12-11T08:34:35;-1.10;1.00
7214;DHT22;3648;50.614;13.830;2022-12-11T08:37:02;-1.10;1.00
7214;DHT22;3648;50.614;13.830;2022-12-11T08:39:29;-1.20;1.00
7214;DHT22;3648;50.614;13.830;2022-12-11T08:41:57;-1.20;1.00
7214;DHT22;3648;50.614;13.830;2022-12-11T08:44:23;-1.10;1.00
7214;DHT22;3648;50.614;13.830;2022-12-11T08:46:51;-1.10;1.00
7214;DHT22;3648;50.614;13.830;2022-12-11T08:49:18;-1.10;1.00
7214;DHT22;3648;50.614;13.830;2022-12-11T08:51:47;-1.10;1.00
7214;DHT22;3648;50.614;13.830;2022-12-11T08:54:14;-1.10;1.00
7214;DHT22;3648;50.614;13.830;2022-12-11T08:56:41;-1.10;1.00
7214;DHT22;3648;50.614;13.830;2022-12-11T08:59:08;-1.20;1.00
7214;DHT22;3648;50.614;13.830;2022-12-11T09:01:35;-1.20;1.00
7214;DHT22;3648;50.614;13.830;2022-12-11T09:04:03;-1.20;1.00
7214;DHT22;3648;50.614;13.830;2022-12-11T09:06:31;-1.20;1.00
7214;DHT22;3648;50.614;13.830;2022-12-11T09:09:00;-1.20;1.00
7214;DHT22;3648;50.614;13.830;2022-12-11T09:11:30;-1.10;1.00
7214;DHT22;3648;50.614;13.830;2022-12-11T09:13:57;-1.20;1.00
7214;DHT22;3648;50.614;13.830;2022-12-11T09:16:25;-1.20;1.00
7214;DHT22;3648;50.614;13.830;2022-12-11T09:18:54;-1.20;1.00
7214;DHT22;3648;50.614;13.830;2022-12-11T09:21:24;-1.20;1.00
7214;DHT22;3648;50.614;13.830;2022-12-11T09:23:52;-1.30;1.00
7214;DHT22;3648;50.614;13.830;2022-12-11T09:26:21;-1.40;1.00
7214;DHT22;3648;50.614;13.830;2022-12-11T09:28:49;-1.40;1.00
7214;DHT22;3648;50.614;13.830;2022-12-11T09:31:20;-1.30;1.00
7214;DHT22;3648;50.614;13.830;2022-12-11T09:33:49;-1.30;1.00
7214;DHT22;3648;50.614;13.830;2022-12-11T09:36:17;-1.30;1.00
7214;DHT22;3648;50.614;13.830;2022-12-11T09:38:44;-1.30;1.00
7214;DHT22;3648;50.614;13.830;2022-12-11T09:41:28;-1.40;1.00
7214;DHT22;3648;50.614;13.830;2022-12-11T09:44:03;-1.40;1.00
7214;DHT22;3648;50.614;13.830;2022-12-11T09:46:34;-1.40;1.00
7214;DHT22;3648;50.614;13.830;2022-12-11T09:49:03;-1.40;1.00
7214;DHT22;3648;50.614;13.830;2022-12-11T09:51:42;-1.40;1.00
7214;DHT22;3648;50.614;13.830;2022-12-11T09:54:11;-1.30;1.00
7214;DHT22;3648;50.614;13.830;2022-12-11T09:56:46;-1.20;1.00
7214;DHT22;3648;50.614;13.830;2022-12-11T09:59:24;-1.10;1.00
7214;DHT22;3648;50.614;13.830;2022-12-11T10:01:58;-1.10;1.00
7214;DHT22;3648;50.614;13.830;2022-12-11T10:04:39;-1.10;1.00
7214;DHT22;3648;50.614;13.830;2022-12-11T10:07:11;-1.20;1.00
7214;DHT22;3648;50.614;13.830;2022-12-11T10:09:48;-1.20;1.00
7214;DHT22;3648;50.614;13.830;2022-12-11T10:12:28;-1.10;1.00
7214;DHT22;3648;50.614;13.830;2022-12-11T10:15:14;-1.20;1.00
7214;DHT22;3648;50.614;13.830;2022-12-11T10:17:43;-1.30;1.00
7214;DHT22;3648;50.614;13.830;2022-12-11T10:20:19;-1.30;1.00
7214;DHT22;3648;50.614;13.830;2022-12-11T10:22:49;-1.30;1.00
7214;DHT22;3648;50.614;13.830;2022-12-11T10:25:20;-1.40;1.00
7214;DHT22;3648;50.614;13.830;2022-12-11T10:27:50;-1.40;1.00
7214;DHT22;3648;50.614;13.830;2022-12-11T10:30:19;-1.30;1.00
7214;DHT22;3648;50.614;13.830;2022-12-11T10:32:53;-1.40;1.00
7214;DHT22;3648;50.614;13.830;2022-12-11T10:35:32;-1.40;1.00
7214;DHT22;3648;50.614;13.830;2022-12-11T10:38:12;-1.50;1.00
7214;DHT22;3648;50.614;13.830;2022-12-11T10:40:43;-1.60;1.00
7214;DHT22;3648;50.614;13.830;2022-12-11T10:43:12;-1.60;1.00
7214;DHT22;3648;50.614;13.830;2022-12-11T10:45:48;-1.50;1.00
7214;DHT22;3648;50.614;13.830;2022-12-11T10:48:15;-1.40;1.00
7214;DHT22;3648;50.614;13.830;2022-12-11T10:50:53;-1.30;1.00
7214;DHT22;3648;50.614;13.830;2022-12-11T10:53:21;-1.20;1.00
7214;DHT22;3648;50.614;13.830;2022-12-11T10:55:49;-1.20;1.00
7214;DHT22;3648;50.614;13.830;2022-12-11T10:58:19;-1.10;1.00
7214;DHT22;3648;50.614;13.830;2022-12-11T11:00:57;-1.00;1.00
7214;DHT22;3648;50.614;13.830;2022-12-11T11:03:26;-1.00;1.00
7214;DHT22;3648;50.614;13.830;2022-12-11T11:06:01;-0.80;1.00
7214;DHT22;3648;50.614;13.830;2022-12-11T11:08:37;-0.80;1.00
7214;DHT22;3648;50.614;13.830;2022-12-11T11:11:05;-0.70;1.00
7214;DHT22;3648;50.614;13.830;2022-12-11T11:13:34;-0.60;1.00
7214;DHT22;3648;50.614;13.830;2022-12-11T11:16:04;-0.60;1.00
7214;DHT22;3648;50.614;13.830;2022-12-11T11:18:32;-0.60;1.00
7214;DHT22;3648;50.614;13.830;2022-12-11T11:21:00;-0.60;1.00
7214;DHT22;3648;50.614;13.830;2022-12-11T11:23:28;-0.60;1.00
7214;DHT22;3648;50.614;13.830;2022-12-11T11:25:57;-0.60;1.00
7214;DHT22;3648;50.614;13.830;2022-12-11T11:28:26;-0.60;1.00
7214;DHT22;3648;50.614;13.830;2022-12-11T11:31:02;-0.50;1.00
7214;DHT22;3648;50.614;13.830;2022-12-11T11:33:30;-0.40;1.00
7214;DHT22;3648;50.614;13.830;2022-12-11T11:35:59;-0.40;1.00
7214;DHT22;3648;50.614;13.830;2022-12-11T11:38:29;-0.40;1.00
7214;DHT22;3648;50.614;13.830;2022-12-11T11:41:04;-0.30;1.00
7214;DHT22;3648;50.614;13.830;2022-12-11T11:43:39;-0.20;1.00
7214;DHT22;3648;50.614;13.830;2022-12-11T11:46:13;-0.10;1.00
7214;DHT22;3648;50.614;13.830;2022-12-11T11:48:48;-0.10;1.00
7214;DHT22;3648;50.614;13.830;2022-12-11T11:51:22;-0.20;1.00
7214;DHT22;3648;50.614;13.830;2022-12-11T11:53:53;-0.20;1.00
7214;DHT22;3648;50.614;13.830;2022-12-11T11:56:25;-0.20;1.00
7214;DHT22;3648;50.614;13.830;2022-12-11T11:59:05;-0.20;1.00
7214;DHT22;3648;50.614;13.830;2022-12-11T12:01:40;-0.20;1.00
7214;DHT22;3648;50.614;13.830;2022-12-11T12:04:07;-0.10;1.00
7214;DHT22;3648;50.614;13.830;2022-12-11T12:06:43;-0.10;1.00
7214;DHT22;3648;50.614;13.830;2022-12-11T12:09:22;-0.10;1.00
7214;DHT22;3648;50.614;13.830;2022-12-11T12:11:58;0.10;1.00
7214;DHT22;3648;50.614;13.830;2022-12-11T12:14:29;0.20;1.00
7214;DHT22;3648;50.614;13.830;2022-12-11T12:17:05;0.30;1.00
7214;DHT22;3648;50.614;13.830;2022-12-11T12:19:53;0.30;1.00
7214;DHT22;3648;50.614;13.830;2022-12-11T12:22:33;0.30;1.00
7214;DHT22;3648;50.614;13.830;2022-12-11T12:25:14;0.30;1.00
7214;DHT22;3648;50.614;13.830;2022-12-11T12:27:47;0.30;1.00
7214;DHT22;3648;50.614;13.830;2022-12-11T12:30:18;0.20;1.00
7214;DHT22;3648;50.614;13.830;2022-12-11T12:32:58;0.30;1.00
7214;DHT22;3648;50.614;13.830;2022-12-11T12:35:34;0.30;1.00
7214;DHT22;3648;50.614;13.830;2022-12-11T12:38:09;0.30;1.00
7214;DHT22;3648;50.614;13.830;2022-12-11T12:40:46;0.30;1.00
7214;DHT22;3648;50.614;13.830;2022-12-11T12:43:30;0.30;1.00
7214;DHT22;3648;50.614;13.830;2022-12-11T12:46:08;0.00;1.00
7214;DHT22;3648;50.614;13.830;2022-12-11T12:48:38;-0.10;1.00
7214;DHT22;3648;50.614;13.830;2022-12-11T12:51:06;-0.20;1.00
7214;DHT22;3648;50.614;13.830;2022-12-11T12:53:35;-0.40;1.00
7214;DHT22;3648;50.614;13.830;2022-12-11T12:56:05;-0.40;1.00
7214;DHT22;3648;50.614;13.830;2022-12-11T12:58:40;-0.40;1.00
7214;DHT22;3648;50.614;13.830;2022-12-11T13:01:13;-0.50;1.00
7214;DHT22;3648;50.614;13.830;2022-12-11T13:03:53;-0.50;1.00
7214;DHT22;3648;50.614;13.830;2022-12-11T13:06:29;-0.60;1.00
7214;DHT22;3648;50.614;13.830;2022-12-11T13:08:57;-0.60;1.00
7214;DHT22;3648;50.614;13.830;2022-12-11T13:11:35;-0.70;1.00
7214;DHT22;3648;50.614;13.830;2022-12-11T13:14:04;-0.70;1.00
7214;DHT22;3648;50.614;13.830;2022-12-11T13:16:37;-0.70;1.00
7214;DHT22;3648;50.614;13.830;2022-12-11T13:19:17;-0.70;1.00
7214;DHT22;3648;50.614;13.830;2022-12-11T13:21:55;-0.80;1.00
7214;DHT22;3648;50.614;13.830;2022-12-11T13:24:27;-0.80;1.00
7214;DHT22;3648;50.614;13.830;2022-12-11T13:26:54;-0.90;1.00
7214;DHT22;3648;50.614;13.830;2022-12-11T13:29:29;-0.90;1.00
7214;DHT22;3648;50.614;13.830;2022-12-11T13:31:58;-1.00;1.00
7214;DHT22;3648;50.614;13.830;2022-12-11T13:34:30;-1.00;1.00
7214;DHT22;3648;50.614;13.830;2022-12-11T13:36:58;-1.00;1.00
7214;DHT22;3648;50.614;13.830;2022-12-11T13:39:28;-1.00;1.00
7214;DHT22;3648;50.614;13.830;2022-12-11T13:41:59;-1.00;1.00
7214;DHT22;3648;50.614;13.830;2022-12-11T13:44:29;-1.00;1.00
7214;DHT22;3648;50.614;13.830;2022-12-11T13:47:00;-1.00;1.00
7214;DHT22;3648;50.614;13.830;2022-12-11T13:49:34;-1.00;1.00
7214;DHT22;3648;50.614;13.830;2022-12-11T13:52:03;-1.10;1.00
7214;DHT22;3648;50.614;13.830;2022-12-11T13:54:31;-1.10;1.00
7214;DHT22;3648;50.614;13.830;2022-12-11T13:57:02;-1.10;1.00
7214;DHT22;3648;50.614;13.830;2022-12-11T13:59:32;-1.20;1.00
7214;DHT22;3648;50.614;13.830;2022-12-11T14:02:04;-1.20;1.00
7214;DHT22;3648;50.614;13.830;2022-12-11T14:04:36;-1.30;1.00
7214;DHT22;3648;50.614;13.830;2022-12-11T14:07:06;-1.30;1.00
7214;DHT22;3648;50.614;13.830;2022-12-11T14:09:37;-1.30;1.00
7214;DHT22;3648;50.614;13.830;2022-12-11T14:12:05;-1.30;1.00
7214;DHT22;3648;50.614;13.830;2022-12-11T14:14:40;-1.50;1.00
7214;DHT22;3648;50.614;13.830;2022-12-11T14:17:12;-1.50;1.00
7214;DHT22;3648;50.614;13.830;2022-12-11T14:19:45;-1.50;1.00
7214;DHT22;3648;50.614;13.830;2022-12-11T14:22:19;-1.40;1.00
7214;DHT22;3648;50.614;13.830;2022-12-11T14:24:51;-1.40;1.00
7214;DHT22;3648;50.614;13.830;2022-12-11T14:27:19;-1.30;1.00
7214;DHT22;3648;50.614;13.830;2022-12-11T14:29:47;-1.40;1.00
7214;DHT22;3648;50.614;13.830;2022-12-11T14:32:18;-1.50;1.00
7214;DHT22;3648;50.614;13.830;2022-12-11T14:34:48;-1.60;1.00
7214;DHT22;3648;50.614;13.830;2022-12-11T14:37:19;-1.70;1.00
7214;DHT22;3648;50.614;13.830;2022-12-11T14:39:53;-1.70;1.00
7214;DHT22;3648;50.614;13.830;2022-12-11T14:42:23;-1.60;1.00
7214;DHT22;3648;50.614;13.830;2022-12-11T14:44:54;-1.60;1.00
7214;DHT22;3648;50.614;13.830;2022-12-11T14:47:24;-1.50;1.00
7214;DHT22;3648;50.614;13.830;2022-12-11T14:49:56;-1.60;1.00
7214;DHT22;3648;50.614;13.830;2022-12-11T14:52:29;-1.60;1.00
7214;DHT22;3648;50.614;13.830;2022-12-11T14:55:02;-1.60;1.00
7214;DHT22;3648;50.614;13.830;2022-12-11T14:57:32;-1.70;1.00
7214;DHT22;3648;50.614;13.830;2022-12-11T15:00:00;-1.70;1.00
7214;DHT22;3648;50.614;13.830;2022-12-11T15:02:29;-1.70;1.00
7214;DHT22;3648;50.614;13.830;2022-12-11T15:05:12;-1.60;1.00
7214;DHT22;3648;50.614;13.830;2022-12-11T15:07:42;-1.80;1.00
7214;DHT22;3648;50.614;13.830;2022-12-11T15:10:33;-1.90;1.00
7214;DHT22;3648;50.614;13.830;2022-12-11T15:13:02;-1.80;1.00
7214;DHT22;3648;50.614;13.830;2022-12-11T15:15:36;-1.90;1.00
7214;DHT22;3648;50.614;13.830;2022-12-11T15:18:06;-1.90;1.00
7214;DHT22;3648;50.614;13.830;2022-12-11T15:20:41;-1.90;1.00
7214;DHT22;3648;50.614;13.830;2022-12-11T15:23:08;-1.90;1.00
7214;DHT22;3648;50.614;13.830;2022-12-11T15:25:35;-1.90;1.00
7214;DHT22;3648;50.614;13.830;2022-12-11T15:28:02;-1.90;1.00
7214;DHT22;3648;50.614;13.830;2022-12-11T15:30:32;-1.90;1.00
7214;DHT22;3648;50.614;13.830;2022-12-11T15:33:18;-1.90;1.00
7214;DHT22;3648;50.614;13.830;2022-12-11T15:36:20;-2.00;1.00
7214;DHT22;3648;50.614;13.830;2022-12-11T15:38:47;-2.10;1.00
7214;DHT22;3648;50.614;13.830;2022-12-11T15:41:16;-2.10;1.00
7214;DHT22;3648;50.614;13.830;2022-12-11T15:43:46;-2.20;1.00
7214;DHT22;3648;50.614;13.830;2022-12-11T15:46:13;-2.20;1.00
7214;DHT22;3648;50.614;13.830;2022-12-11T15:48:40;-2.10;1.00
7214;DHT22;3648;50.614;13.830;2022-12-11T15:51:08;-2.20;1.00
7214;DHT22;3648;50.614;13.830;2022-12-11T15:53:36;-2.30;1.00
7214;DHT22;3648;50.614;13.830;2022-12-11T15:56:04;-2.20;1.00
7214;DHT22;3648;50.614;13.830;2022-12-11T15:58:31;-2.10;1.00
7214;DHT22;3648;50.614;13.830;2022-12-11T16:01:00;-2.20;1.00
7214;DHT22;3648;50.614;13.830;2022-12-11T16:03:27;-2.20;1.00
7214;DHT22;3648;50.614;13.830;2022-12-11T16:05:54;-2.10;1.00
7214;DHT22;3648;50.614;13.830;2022-12-11T16:08:22;-2.10;1.00
7214;DHT22;3648;50.614;13.830;2022-12-11T16:10:52;-2.10;1.00
7214;DHT22;3648;50.614;13.830;2022-12-11T16:13:20;-2.30;1.00
7214;DHT22;3648;50.614;13.830;2022-12-11T16:15:49;-2.40;1.00
7214;DHT22;3648;50.614;13.830;2022-12-11T16:18:19;-2.40;1.00
7214;DHT22;3648;50.614;13.830;2022-12-11T16:20:47;-2.40;1.00
7214;DHT22;3648;50.614;13.830;2022-12-11T16:23:14;-2.50;1.00